createdAt,value
2018-11-22T12:16:52.435Z,18.80
2018-11-22T12:19:31.128Z,19.27
2018-11-22T12:22:06.678Z,18.33
2018-11-22T12:24:43.964Z,18.13
2018-11-22T12:27:20.226Z,17.77
2018-11-22T12:29:56.303Z,18.90
2018-11-22T12:32:35.307Z,18.97
2018-11-22T12:35:13.385Z,17.57
2018-11-22T12:37:55.840Z,26.47
2018-11-22T12:40:31.899Z,18.67
2018-11-22T12:43:07.757Z,18.93
2018-11-22T12:45:44.926Z,18.60
2018-11-22T12:48:21.171Z,17.43
2018-11-22T12:50:53.400Z,17.10
2018-11-22T12:53:30.159Z,17.37
2018-11-22T12:56:05.282Z,17.10
2018-11-22T12:58:41.053Z,17.60
2018-11-22T13:01:16.775Z,18.27
2018-11-22T13:03:52.916Z,17.23
2018-11-22T13:06:30.231Z,18.50
2018-11-22T13:09:09.033Z,18.17
2018-11-22T13:11:49.210Z,18.80
2018-11-22T13:14:25.485Z,20.23
2018-11-22T13:17:02.771Z,20.23
2018-11-22T13:19:38.778Z,20.00
2018-11-22T13:22:14.849Z,21.47
2018-11-22T13:24:51.872Z,19.90
2018-11-22T13:27:29.158Z,21.20
2018-11-22T13:30:21.448Z,20.43
2018-11-22T13:32:59.488Z,20.87
2018-11-22T13:35:35.598Z,20.63
2018-11-22T13:38:11.915Z,20.87
2018-11-22T13:40:48.037Z,19.93
2018-11-22T13:43:24.199Z,20.97
2018-11-22T13:45:59.967Z,21.17
2018-11-22T13:48:36.095Z,21.40
2018-11-22T13:51:12.557Z,20.83
2018-11-22T13:53:49.287Z,21.03
2018-11-22T13:56:26.085Z,20.90
2018-11-22T13:59:03.002Z,21.03
2018-11-22T14:01:38.903Z,23.23
2018-11-22T14:04:15.857Z,20.63
2018-11-22T14:06:53.084Z,22.30
2018-11-22T14:09:30.154Z,21.43
2018-11-22T14:12:05.852Z,20.50
2018-11-22T14:14:42.459Z,21.57
2018-11-22T14:17:20.609Z,22.00
2018-11-22T14:19:58.691Z,20.47
2018-11-22T14:22:36.292Z,22.97
2018-11-22T14:25:14.862Z,21.90
2018-11-22T14:27:51.594Z,19.97
2018-11-22T14:30:31.409Z,21.07
2018-11-22T14:33:02.389Z,19.03
2018-11-22T14:35:39.560Z,21.03
2018-11-22T14:38:15.977Z,20.87
2018-11-22T14:40:52.207Z,20.20
2018-11-22T14:43:29.690Z,20.43
2018-11-22T14:46:06.535Z,19.03
2018-11-22T14:48:42.887Z,19.97
2018-11-22T14:51:22.053Z,20.53
2018-11-22T14:54:02.457Z,18.83
2018-11-22T14:56:38.088Z,19.07
2018-11-22T14:59:14.356Z,18.43
2018-11-22T15:01:50.407Z,18.30
2018-11-22T15:04:27.204Z,19.47
2018-11-22T15:07:01.733Z,18.67
2018-11-22T15:09:31.154Z,18.10
2018-11-22T15:12:00.627Z,18.50
2018-11-22T15:14:30.050Z,17.67
2018-11-22T15:16:59.509Z,17.77
2018-11-22T15:19:29.009Z,20.40
2018-11-22T15:21:58.518Z,19.97
2018-11-22T15:24:27.953Z,19.50
2018-11-22T15:26:57.404Z,18.63
2018-11-22T15:29:32.225Z,17.87
2018-11-22T15:32:01.731Z,18.37
2018-11-22T15:34:31.236Z,18.20
2018-11-22T15:37:00.739Z,18.20
2018-11-22T15:39:30.122Z,19.00
2018-11-22T15:41:59.665Z,19.17
2018-11-22T15:44:29.090Z,19.50
2018-11-22T15:46:58.562Z,17.93
2018-11-22T15:49:33.093Z,17.37
2018-11-22T15:52:02.593Z,19.00
2018-11-22T15:54:32.093Z,17.57
2018-11-22T15:57:01.522Z,17.87
2018-11-22T15:59:30.947Z,17.57
2018-11-22T16:02:00.505Z,17.27
2018-11-22T16:04:30.041Z,16.97
2018-11-22T16:06:59.441Z,16.83
2018-11-22T16:09:34.249Z,17.70
2018-11-22T16:12:03.737Z,18.33
2018-11-22T16:14:33.206Z,19.27
2018-11-22T16:17:02.748Z,18.30
2018-11-22T16:19:32.136Z,19.03
2018-11-22T16:22:01.573Z,19.20
2018-11-22T16:24:31.649Z,21.20
2018-11-22T16:27:01.061Z,19.23
2018-11-22T16:29:30.475Z,18.50
2018-11-22T16:32:05.150Z,17.43
2018-11-22T16:34:34.606Z,17.93
2018-11-22T16:37:04.194Z,17.50
2018-11-22T16:39:33.718Z,17.00
2018-11-22T16:42:03.149Z,18.57
2018-11-22T16:44:37.573Z,18.07
2018-11-22T16:47:12.146Z,18.07
2018-11-22T16:49:41.578Z,16.20
2018-11-22T16:52:11.007Z,20.03
2018-11-22T16:54:40.477Z,19.00
2018-11-22T16:57:09.886Z,18.63
2018-11-22T16:59:39.435Z,18.00
2018-11-22T17:02:08.857Z,18.30
2018-11-22T17:04:43.318Z,18.27
2018-11-22T17:07:14.447Z,15.93
2018-11-22T17:09:43.876Z,15.93
2018-11-22T17:12:13.313Z,16.70
2018-11-22T17:14:42.730Z,17.20
2018-11-22T17:17:12.149Z,16.40
2018-11-22T17:19:41.602Z,16.43
2018-11-22T17:22:11.757Z,16.37
2018-11-22T17:24:41.189Z,17.30
2018-11-22T17:27:10.630Z,17.97
2018-11-22T17:29:40.318Z,16.23
2018-11-22T17:32:09.720Z,16.97
2018-11-22T17:34:39.211Z,17.63
2018-11-22T17:37:08.638Z,16.27
2018-11-22T17:39:38.066Z,17.23
2018-11-22T17:42:12.573Z,16.20
2018-11-22T17:44:42.039Z,16.97
2018-11-22T17:47:11.447Z,17.17
2018-11-22T17:49:40.902Z,16.50
2018-11-22T17:52:10.313Z,17.60
2018-11-22T17:54:39.739Z,17.87
2018-11-22T17:57:09.153Z,16.77
2018-11-22T17:59:38.610Z,17.13
2018-11-22T18:02:08.006Z,17.00
2018-11-22T18:04:37.469Z,15.73
2018-11-22T18:07:06.886Z,16.23
2018-11-22T18:09:36.298Z,16.10
2018-11-22T18:12:05.905Z,17.40
2018-11-22T18:14:35.329Z,16.83
2018-11-22T18:17:04.835Z,17.37
2018-11-22T18:19:34.293Z,16.77
2018-11-22T18:22:03.840Z,16.33
2018-11-22T18:24:33.263Z,17.50
2018-11-22T18:27:02.725Z,16.93
2018-11-22T18:29:32.165Z,15.90
2018-11-22T18:32:01.586Z,17.33
2018-11-22T18:34:31.943Z,17.37
2018-11-22T18:37:01.398Z,17.53
2018-11-22T18:39:30.826Z,17.23
2018-11-22T18:42:00.494Z,19.70
2018-11-22T18:44:29.932Z,18.57
2018-11-22T18:46:59.458Z,16.03
2018-11-22T18:49:29.146Z,18.00
2018-11-22T18:51:58.769Z,16.77
2018-11-22T18:54:28.171Z,16.17
2018-11-22T18:56:57.590Z,15.77
2018-11-22T18:59:32.634Z,16.10
2018-11-22T19:02:02.133Z,16.60
2018-11-22T19:04:31.721Z,16.93
2018-11-22T19:07:01.110Z,15.20
2018-11-22T19:09:30.530Z,16.53
2018-11-22T19:12:00.019Z,16.37
2018-11-22T19:14:34.463Z,17.77
2018-11-22T19:17:03.933Z,16.23
2018-11-22T19:19:33.413Z,17.40
2018-11-22T19:22:02.878Z,17.40
2018-11-22T19:24:32.294Z,16.70
2018-11-22T19:27:01.726Z,17.93
2018-11-22T19:29:36.186Z,18.27
2018-11-22T19:32:06.029Z,18.83
2018-11-22T19:34:35.486Z,18.17
2018-11-22T19:37:05.062Z,17.03
2018-11-22T19:39:34.481Z,19.53
2018-11-22T19:42:03.906Z,16.60
2018-11-22T19:44:33.729Z,17.53
2018-11-22T19:47:03.155Z,18.77
2018-11-22T19:49:32.660Z,18.17
2018-11-22T19:52:02.097Z,17.53
2018-11-22T19:54:31.519Z,16.50
2018-11-22T19:57:07.393Z,15.70
2018-11-22T19:59:38.175Z,17.63
2018-11-22T20:02:13.801Z,18.10
2018-11-22T20:04:49.086Z,18.20
2018-11-22T20:07:25.001Z,17.63
2018-11-22T20:10:03.170Z,18.57
2018-11-22T20:12:33.642Z,18.40
2018-11-22T20:15:08.959Z,18.73
2018-11-22T20:17:44.900Z,17.90
2018-11-22T20:20:21.334Z,18.07
2018-11-22T20:22:58.871Z,17.70
2018-11-22T20:25:34.827Z,19.27
2018-11-22T20:28:10.777Z,16.73
2018-11-22T20:30:47.247Z,17.63
2018-11-22T20:33:24.964Z,17.27
2018-11-22T20:36:01.515Z,19.10
2018-11-22T20:38:32.638Z,18.50
2018-11-22T20:41:10.987Z,18.43
2018-11-22T20:43:46.770Z,18.20
2018-11-22T20:46:22.998Z,17.93
2018-11-22T20:49:01.382Z,16.87
2018-11-22T20:51:37.590Z,17.07
2018-11-22T20:54:13.853Z,16.33
2018-11-22T20:56:48.297Z,15.77
2018-11-22T20:59:17.729Z,16.17
2018-11-22T21:01:51.632Z,17.03
2018-11-22T21:04:16.630Z,17.53
2018-11-22T21:06:46.038Z,16.90
2018-11-22T21:09:20.555Z,15.67
2018-11-22T21:11:49.985Z,16.47
2018-11-22T21:14:19.407Z,16.73
2018-11-22T21:16:48.839Z,14.87
2018-11-22T21:19:18.257Z,16.00
2018-11-22T21:21:47.782Z,14.87
2018-11-22T21:24:17.289Z,14.93
2018-11-22T21:26:46.705Z,15.20
2018-11-22T21:29:16.418Z,14.97
2018-11-22T21:31:50.982Z,15.17
2018-11-22T21:34:20.453Z,16.13
2018-11-22T21:36:49.885Z,15.33
2018-11-22T21:39:19.381Z,15.80
2018-11-22T21:41:48.798Z,15.23
2018-11-22T21:44:18.215Z,15.67
2018-11-22T21:46:47.664Z,16.03
2018-11-22T21:49:17.084Z,15.93
2018-11-22T21:51:46.514Z,15.60
2018-11-22T21:54:15.946Z,14.57
2018-11-22T21:56:45.374Z,15.40
2018-11-22T21:59:14.821Z,15.20
2018-11-22T22:01:44.291Z,13.73
2018-11-22T22:04:18.721Z,15.23
2018-11-22T22:06:48.173Z,15.43
2018-11-22T22:09:17.625Z,14.97
2018-11-22T22:11:47.042Z,14.27
2018-11-22T22:14:16.769Z,13.30
2018-11-22T22:16:46.217Z,14.20
2018-11-22T22:19:15.835Z,13.10
2018-11-22T22:21:45.239Z,13.27
2018-11-22T22:24:20.014Z,14.60
2018-11-22T22:26:49.437Z,14.63
2018-11-22T22:29:18.846Z,14.73
2018-11-22T22:31:48.621Z,14.20
2018-11-22T22:34:18.452Z,13.73
2018-11-22T22:36:47.900Z,13.90
2018-11-22T22:39:17.317Z,13.80
2018-11-22T22:41:46.721Z,13.40
2018-11-22T22:44:16.134Z,13.87
2018-11-22T22:46:45.624Z,13.73
2018-11-22T22:49:15.127Z,14.93
2018-11-22T22:51:44.590Z,13.97
2018-11-22T22:54:13.989Z,13.87
2018-11-22T22:56:43.409Z,13.57
2018-11-22T22:59:12.837Z,14.17
2018-11-22T23:01:47.372Z,13.37
2018-11-22T23:04:16.841Z,14.43
2018-11-22T23:06:46.258Z,13.10
2018-11-22T23:09:15.682Z,14.23
2018-11-22T23:11:45.098Z,14.23
2018-11-22T23:14:14.506Z,13.43
2018-11-22T23:16:43.933Z,12.67
2018-11-22T23:19:13.349Z,12.47
2018-11-22T23:21:42.775Z,13.17
2018-11-22T23:24:12.278Z,13.77
2018-11-22T23:26:41.684Z,13.23
2018-11-22T23:29:16.214Z,13.60
2018-11-22T23:31:45.710Z,14.00
2018-11-22T23:34:15.090Z,13.63
2018-11-22T23:36:44.525Z,14.77
2018-11-22T23:39:14.052Z,13.10
2018-11-22T23:41:43.481Z,13.47
2018-11-22T23:44:12.927Z,13.20
2018-11-22T23:46:42.355Z,14.23
2018-11-22T23:49:11.778Z,14.43
2018-11-22T23:51:41.246Z,13.63
2018-11-22T23:54:10.664Z,13.93
2018-11-22T23:56:40.105Z,14.63
2018-11-22T23:59:09.521Z,14.63
